Time;durP1;ratioP1;P1;durP2;ratioP2;P2;SDS_P1;SDS_P2;PMS_P1;PMS_P2;Temp;Humidity;BMP_temperature;BMP_pressure;BME280_temperature;BME280_humidity;BME280_pressure;Samples;Min_cycle;Max_cycle;Signal;HPM_P1;HPM_P2
2022/05/19 00:02:11;;;;;;;1.65;0.80;;;;;;;7.50;63.04;98769.85;1707935;83;21442;-84
2022/05/19 00:04:38;;;;;;;1.40;0.95;;;;;;;7.45;62.69;98779.13;1718911;82;21020;-84
2022/05/19 00:07:05;;;;;;;4.72;0.85;;;;;;;7.38;62.36;98781.33;1719128;83;21013;-83
2022/05/19 00:09:33;;;;;;;1.32;1.00;;;;;;;7.32;62.52;98781.36;1718967;82;21044;-83
2022/05/19 00:12:02;;;;;;;2.37;1.20;;;;;;;7.28;62.52;98781.83;1713925;83;21483;-83
2022/05/19 00:14:28;;;;;;;1.87;1.00;;;;;;;7.29;62.15;98778.30;1745306;81;21104;-84
2022/05/19 00:16:57;;;;;;;1.85;1.10;;;;;;;7.28;62.11;98781.83;1753034;82;21016;-83
2022/05/19 00:19:24;;;;;;;4.03;0.90;;;;;;;7.28;62.31;98780.50;1717597;83;21032;-83
2022/05/19 00:21:50;;;;;;;2.42;1.02;;;;;;;7.28;63.72;98783.14;1699863;84;21132;-83
2022/05/19 00:24:17;;;;;;;2.85;0.88;;;;;;;7.21;63.58;98780.07;1699650;84;21365;-83
2022/05/19 00:26:44;;;;;;;1.98;1.52;;;;;;;7.18;63.16;98781.42;1699884;84;21017;-83
2022/05/19 00:29:10;;;;;;;2.10;0.93;;;;;;;7.15;63.15;98784.95;1699940;84;21029;-83
2022/05/19 00:31:38;;;;;;;3.30;0.98;;;;;;;7.11;63.57;98788.00;1699620;84;21077;-84
2022/05/19 00:34:06;;;;;;;1.45;1.10;;;;;;;7.11;62.86;98785.37;1699925;84;21391;-83
2022/05/19 00:36:33;;;;;;;3.45;1.00;;;;;;;7.11;62.56;98789.32;1699772;84;21029;-83
2022/05/19 00:39:01;;;;;;;5.37;1.00;;;;;;;7.13;63.10;98789.32;1699777;83;21037;-86
2022/05/19 00:41:28;;;;;;;2.17;0.95;;;;;;;7.11;64.22;98791.95;1699819;84;21049;-85
2022/05/19 00:44:05;;;;;;;2.55;0.90;;;;;;;7.10;63.65;98784.94;1699856;84;21445;-85
2022/05/19 00:46:44;;;;;;;1.42;1.00;;;;;;;7.10;62.84;98785.40;1699692;84;21035;-85
2022/05/19 00:49:32;;;;;;;3.50;1.17;;;;;;;7.09;63.09;98786.25;1699275;84;21031;-84
2022/05/19 00:52:02;;;;;;;1.85;1.07;;;;;;;7.07;63.07;98786.72;1698489;84;21147;-84
2022/05/19 00:54:38;;;;;;;1.62;0.90;;;;;;;7.02;63.08;98785.39;1699741;84;21039;-83
2022/05/19 00:57:23;;;;;;;3.75;1.10;;;;;;;7.00;63.93;98783.21;1699552;84;21065;-82
2022/05/19 01:00:02;;;;;;;2.02;0.80;;;;;;;6.94;64.43;98788.05;1699732;84;21057;-82
2022/05/19 01:02:35;;;;;;;4.95;1.10;;;;;;;6.88;63.75;98787.20;1699610;84;21044;-83
2022/05/19 01:05:08;;;;;;;2.05;1.00;;;;;;;6.82;64.64;98794.67;1699967;83;21013;-84
2022/05/19 01:07:41;;;;;;;2.08;0.80;;;;;;;6.75;64.30;98795.11;1699398;84;21068;-84
2022/05/19 01:10:07;;;;;;;1.90;0.80;;;;;;;6.73;64.03;98791.16;1698715;84;21059;-84
2022/05/19 01:12:35;;;;;;;1.65;0.75;;;;;;;6.76;63.99;98791.59;1699801;84;21007;-84
2022/05/19 01:15:03;;;;;;;2.65;0.90;;;;;;;6.80;63.90;98792.03;1706226;84;21110;-84
2022/05/19 01:17:32;;;;;;;3.95;1.30;;;;;;;6.83;63.87;98792.47;1712672;83;21070;-84
2022/05/19 01:20:17;;;;;;;2.35;0.90;;;;;;;6.80;64.50;98795.09;1719315;83;21021;-85
2022/05/19 01:22:56;;;;;;;1.92;1.10;;;;;;;6.75;63.94;98787.21;1718295;83;21471;-84
2022/05/19 01:25:43;;;;;;;1.90;1.00;;;;;;;6.70;64.59;98798.19;1719415;83;21006;-84
2022/05/19 01:28:11;;;;;;;2.60;0.90;;;;;;;6.67;64.52;98793.80;1709485;83;21506;-83
2022/05/19 01:30:38;;;;;;;1.27;0.80;;;;;;;6.68;64.10;98792.92;1707103;83;21113;-84
2022/05/19 01:33:05;;;;;;;1.77;0.95;;;;;;;6.70;64.03;98796.45;1706771;84;21090;-84
2022/05/19 01:35:34;;;;;;;5.78;1.00;;;;;;;6.66;63.71;98799.96;1706747;84;21031;-84
2022/05/19 01:38:04;;;;;;;3.10;1.10;;;;;;;6.60;63.81;98801.25;1713840;83;21152;-84
2022/05/19 01:40:47;;;;;;;1.02;0.90;;;;;;;6.52;64.08;98800.41;1718418;83;21006;-84
2022/05/19 01:43:28;;;;;;;1.32;0.72;;;;;;;6.56;65.88;98796.44;1719189;83;21519;-85
2022/05/19 01:46:15;;;;;;;1.55;0.98;;;;;;;6.54;66.07;98799.95;1719337;83;20986;-84
2022/05/19 01:48:47;;;;;;;3.98;1.10;;;;;;;6.51;65.43;98796.02;1708272;83;21448;-84
2022/05/19 01:51:17;;;;;;;2.33;1.30;;;;;;;6.50;66.06;98801.72;1704812;84;21543;-84
2022/05/19 01:54:04;;;;;;;2.42;0.90;;;;;;;6.45;65.60;98794.26;1706264;84;21027;-84
2022/05/19 01:56:54;;;;;;;1.57;0.85;;;;;;;6.42;64.75;98800.41;1698599;84;21513;-83
2022/05/19 01:59:36;;;;;;;2.98;1.30;;;;;;;6.40;65.05;98799.50;1710671;83;21015;-83
2022/05/19 02:02:22;;;;;;;2.52;1.00;;;;;;;6.37;65.01;98792.94;1680252;83;21456;-84
2022/05/19 02:04:55;;;;;;;3.12;1.00;;;;;;;6.34;65.07;98793.81;1739519;82;21054;-83
2022/05/19 02:07:22;;;;;;;3.15;1.20;;;;;;;6.26;65.44;98794.24;1739558;81;21055;-83
2022/05/19 02:09:58;;;;;;;3.83;1.20;;;;;;;6.11;66.64;98792.48;1706833;84;21078;-83
2022/05/19 02:12:27;;;;;;;2.17;1.15;;;;;;;6.01;67.28;98803.81;1739571;82;21066;-83
2022/05/19 02:14:57;;;;;;;4.20;0.85;;;;;;;5.90;67.33;98797.23;1695758;83;21506;-83
2022/05/19 02:17:27;;;;;;;4.45;1.10;;;;;;;5.81;68.64;98804.22;1708526;84;21031;-83
2022/05/19 02:19:57;;;;;;;3.92;0.90;;;;;;;5.77;68.24;98801.13;1709412;84;20983;-83
2022/05/19 02:22:27;;;;;;;2.92;1.00;;;;;;;5.73;68.54;98812.97;1709377;84;21081;-83
2022/05/19 02:25:15;;;;;;;2.27;1.00;;;;;;;5.70;67.51;98810.32;1708916;84;21071;-83
2022/05/19 02:28:12;;;;;;;2.45;1.02;;;;;;;5.72;68.14;98812.08;1672781;84;21068;-83
2022/05/19 02:30:41;;;;;;;3.52;1.00;;;;;;;5.73;67.77;98820.41;1691829;85;21029;-83
2022/05/19 02:33:10;;;;;;;3.33;1.00;;;;;;;5.69;68.77;98821.27;1692000;85;21019;-84
2022/05/19 02:35:36;;;;;;;1.45;1.00;;;;;;;5.71;68.27;98823.91;1692141;84;21102;-85
2022/05/19 02:38:03;;;;;;;3.42;1.12;;;;;;;5.71;68.90;98830.48;1698736;84;21078;-84
2022/05/19 02:40:32;;;;;;;2.37;1.00;;;;;;;5.73;68.79;98827.44;1709436;84;21078;-84
2022/05/19 02:42:59;;;;;;;1.90;0.90;;;;;;;5.73;68.92;98826.98;1709594;84;21027;-84
2022/05/19 02:45:26;;;;;;;2.00;1.02;;;;;;;5.74;68.10;98834.45;1709373;84;21051;-83
2022/05/19 02:47:52;;;;;;;2.55;0.90;;;;;;;5.67;68.29;98830.91;1704199;83;21151;-84
2022/05/19 02:50:21;;;;;;;3.65;0.80;;;;;;;5.68;67.82;98824.34;1692117;85;21461;-84
2022/05/19 02:52:48;;;;;;;2.58;1.00;;;;;;;5.67;69.24;98829.59;1692083;85;21064;-84
2022/05/19 02:55:15;;;;;;;2.87;1.10;;;;;;;5.68;68.12;98833.55;1692083;85;21032;-84
2022/05/19 02:57:43;;;;;;;1.98;1.05;;;;;;;5.63;69.01;98835.71;1695280;84;21103;-84
2022/05/19 03:00:13;;;;;;;4.50;1.27;;;;;;;5.60;68.44;98840.98;1709198;84;20991;-83
2022/05/19 03:02:41;;;;;;;2.58;0.90;;;;;;;5.58;68.00;98833.50;1708821;84;21054;-83
2022/05/19 03:05:10;;;;;;;2.00;1.25;;;;;;;5.57;69.08;98840.53;1709396;84;21034;-83
2022/05/19 03:07:37;;;;;;;2.72;1.00;;;;;;;5.58;68.79;98844.02;1694213;84;21054;-84
2022/05/19 03:10:04;;;;;;;3.50;0.93;;;;;;;5.57;69.44;98844.90;1692034;85;21070;-83
2022/05/19 03:12:31;;;;;;;3.42;1.02;;;;;;;5.58;68.68;98842.70;1691731;85;21093;-83
2022/05/19 03:14:58;;;;;;;5.15;1.32;;;;;;;5.63;68.41;98843.59;1691966;85;21052;-83
2022/05/19 03:17:24;;;;;;;1.90;1.35;;;;;;;5.65;68.97;98846.68;1704886;84;21026;-83
2022/05/19 03:19:53;;;;;;;4.53;1.90;;;;;;;5.62;68.23;98849.73;1709092;84;21014;-83
2022/05/19 03:22:22;;;;;;;2.72;1.05;;;;;;;5.62;67.98;98849.73;1709430;84;21019;-83
2022/05/19 03:24:48;;;;;;;3.90;1.40;;;;;;;5.61;68.27;98853.25;1709377;84;21125;-84
2022/05/19 03:27:14;;;;;;;2.17;1.20;;;;;;;5.59;68.12;98854.97;1697356;84;21414;-84
2022/05/19 03:29:41;;;;;;;4.37;1.20;;;;;;;5.55;68.40;98851.45;1692255;85;21077;-84
2022/05/19 03:32:08;;;;;;;3.70;1.15;;;;;;;5.49;70.63;98856.24;1691878;85;21099;-84
2022/05/19 03:34:34;;;;;;;3.37;1.65;;;;;;;5.49;69.18;98856.70;1692045;85;21401;-83
2022/05/19 03:37:04;;;;;;;4.12;1.47;;;;;;;5.48;70.09;98857.13;1701938;84;21063;-84
2022/05/19 03:39:31;;;;;;;1.87;1.10;;;;;;;5.51;69.90;98849.69;1709477;84;21447;-83
2022/05/19 03:41:59;;;;;;;2.02;1.20;;;;;;;5.56;69.64;98863.73;1709272;84;21038;-83
2022/05/19 03:44:26;;;;;;;2.30;1.30;;;;;;;5.58;69.20;98858.48;1709509;83;21476;-83
2022/05/19 03:46:52;;;;;;;7.55;1.12;;;;;;;5.58;69.10;98861.11;1701142;84;21044;-83
2022/05/19 03:49:19;;;;;;;3.15;1.57;;;;;;;5.59;69.17;98866.38;1692114;85;21088;-84
2022/05/19 03:51:46;;;;;;;4.05;1.60;;;;;;;5.60;70.59;98864.19;1692167;85;21032;-84
2022/05/19 03:54:12;;;;;;;4.72;1.67;;;;;;;5.60;71.07;98864.19;1692127;85;21048;-84
2022/05/19 03:56:39;;;;;;;7.80;1.55;;;;;;;5.64;69.90;98865.97;1697760;84;20983;-84
2022/05/19 03:59:05;;;;;;;3.12;1.10;;;;;;;5.67;70.55;98867.73;1709424;84;21062;-84
2022/05/19 04:01:33;;;;;;;4.20;2.33;;;;;;;5.68;70.69;98867.75;1709404;83;21026;-85
2022/05/19 04:03:59;;;;;;;3.35;1.35;;;;;;;5.72;70.78;98866.00;1698409;84;21084;-84
2022/05/19 04:06:27;;;;;;;2.65;1.40;;;;;;;5.79;70.51;98864.27;1676560;84;20994;-84
2022/05/19 04:08:53;;;;;;;3.10;1.40;;;;;;;5.82;70.77;98857.72;1698771;84;21489;-84
2022/05/19 04:11:20;;;;;;;4.22;1.32;;;;;;;5.88;70.03;98859.05;1677278;85;21032;-84
2022/05/19 04:13:46;;;;;;;2.25;1.45;;;;;;;5.97;69.81;98866.55;1663622;86;21059;-83
2022/05/19 04:16:12;;;;;;;3.30;1.72;;;;;;;6.03;69.22;98870.08;1719081;83;21095;-85
2022/05/19 04:18:39;;;;;;;3.08;1.50;;;;;;;6.10;68.92;98867.48;1721230;83;21240;-84
2022/05/19 04:21:05;;;;;;;1.95;1.40;;;;;;;6.16;68.71;98869.70;1720980;82;21434;-84
2022/05/19 04:23:32;;;;;;;5.03;1.70;;;;;;;6.24;68.36;98867.08;1721227;83;21004;-84
2022/05/19 04:25:59;;;;;;;5.12;1.47;;;;;;;6.31;67.94;98875.88;1721194;82;21549;-84
2022/05/19 04:28:25;;;;;;;6.03;2.10;;;;;;;6.38;67.54;98867.52;1686726;85;21076;-84
2022/05/19 04:30:53;;;;;;;3.65;1.42;;;;;;;6.43;67.82;98875.88;1721204;83;21071;-83
2022/05/19 04:33:19;;;;;;;3.70;1.40;;;;;;;6.54;67.31;98880.27;1721358;83;21112;-83
2022/05/19 04:35:46;;;;;;;5.60;1.75;;;;;;;6.64;67.36;98874.13;1721281;83;21017;-83
2022/05/19 04:38:15;;;;;;;4.60;1.60;;;;;;;6.73;66.98;98878.09;1721270;82;21532;-83
2022/05/19 04:40:47;;;;;;;5.20;1.65;;;;;;;6.80;66.86;98870.19;1721172;82;21144;-83
2022/05/19 04:43:21;;;;;;;5.50;1.80;;;;;;;6.89;66.93;98875.45;1721232;83;21071;-84
2022/05/19 04:45:48;;;;;;;2.50;1.65;;;;;;;6.99;66.82;98861.39;1721166;83;21012;-84
2022/05/19 04:48:16;;;;;;;5.42;1.87;;;;;;;7.06;66.25;98869.31;1721333;83;21024;-84
2022/05/19 04:50:43;;;;;;;6.00;1.90;;;;;;;7.16;66.16;98876.33;1721215;82;21067;-83
2022/05/19 04:53:12;;;;;;;4.22;1.72;;;;;;;7.25;66.02;98868.41;1720968;83;21704;-84
2022/05/19 04:55:39;;;;;;;4.37;2.30;;;;;;;7.37;66.03;98867.92;1721162;83;21407;-83
2022/05/19 04:58:06;;;;;;;7.78;2.10;;;;;;;7.45;65.86;98866.58;1727249;82;21021;-83
2022/05/19 05:00:35;;;;;;;6.17;1.95;;;;;;;7.57;65.67;98856.44;1715241;82;21055;-84
2022/05/19 05:03:02;;;;;;;3.00;1.62;;;;;;;7.63;65.25;98856.41;1659159;85;21035;-85
2022/05/19 05:05:28;;;;;;;6.87;2.30;;;;;;;7.69;65.33;98859.05;1716458;82;21042;-84
2022/05/19 05:07:57;;;;;;;4.15;1.82;;;;;;;7.75;65.17;98853.73;1686845;85;21017;-84
2022/05/19 05:10:23;;;;;;;3.47;1.82;;;;;;;7.84;65.56;98854.59;1717583;83;21496;-84
2022/05/19 05:12:49;;;;;;;5.58;2.08;;;;;;;7.90;64.91;98856.73;1661071;84;21058;-84
2022/05/19 05:15:16;;;;;;;4.67;1.67;;;;;;;8.01;64.99;98858.00;1721737;82;21033;-84
2022/05/19 05:17:42;;;;;;;3.35;1.52;;;;;;;8.12;64.72;98851.36;1704578;84;21091;-84
2022/05/19 05:20:12;;;;;;;2.60;1.65;;;;;;;8.23;64.61;98860.97;1744515;82;20973;-83
2022/05/19 05:22:39;;;;;;;5.30;1.95;;;;;;;8.31;64.47;98853.42;1709015;83;21410;-84
2022/05/19 05:25:09;;;;;;;3.37;1.22;;;;;;;8.43;64.11;98849.83;1748249;82;21041;-84
2022/05/19 05:27:37;;;;;;;5.85;1.75;;;;;;;8.54;63.90;98851.11;1720638;82;21108;-84
2022/05/19 05:30:04;;;;;;;3.20;1.30;;;;;;;8.64;63.80;98857.19;1710107;83;21001;-84
2022/05/19 05:32:31;;;;;;;2.20;1.32;;;;;;;8.76;63.69;98864.61;1743481;82;21037;-83
2022/05/19 05:34:57;;;;;;;8.58;2.25;;;;;;;8.85;62.64;98864.53;1748166;82;21546;-84
2022/05/19 05:37:23;;;;;;;3.60;1.60;;;;;;;8.95;62.60;98858.70;1696161;83;21044;-84
2022/05/19 05:39:50;;;;;;;2.83;1.40;;;;;;;9.06;61.91;98858.61;1720927;82;21077;-84
2022/05/19 05:42:16;;;;;;;1.72;1.25;;;;;;;9.18;61.58;98855.83;1693113;83;21051;-85
2022/05/19 05:44:42;;;;;;;8.05;1.47;;;;;;;9.30;61.91;98858.80;1725060;82;21101;-85
2022/05/19 05:47:08;;;;;;;4.28;1.70;;;;;;;9.39;61.49;98848.59;1720300;83;21073;-84
2022/05/19 05:49:35;;;;;;;89.13;47.00;;;;;;;9.50;61.17;98848.45;1718863;83;21009;-84
2022/05/19 05:52:01;;;;;;;26.23;11.03;;;;;;;9.62;61.04;98855.37;1742345;82;21005;-85
2022/05/19 05:54:28;;;;;;;3.67;1.30;;;;;;;9.72;60.69;98849.53;1748276;82;21460;-85
2022/05/19 05:56:54;;;;;;;2.10;1.30;;;;;;;9.83;59.36;98859.97;1748522;82;21103;-85
2022/05/19 05:59:20;;;;;;;5.40;2.20;;;;;;;9.97;59.15;98859.81;1748643;82;21090;-85
2022/05/19 06:01:47;;;;;;;3.87;2.00;;;;;;;10.09;59.85;98858.77;1748187;82;21081;-85
2022/05/19 06:04:14;;;;;;;4.85;2.42;;;;;;;10.22;59.78;98862.12;1710492;83;21004;-84
2022/05/19 06:06:40;;;;;;;4.12;1.52;;;;;;;10.35;59.71;98862.81;1748707;82;21370;-84
2022/05/19 06:09:06;;;;;;;5.87;1.77;;;;;;;10.45;59.75;98861.81;1748472;82;21087;-84
2022/05/19 06:11:32;;;;;;;4.33;1.30;;;;;;;10.56;59.31;98859.00;1748347;81;21012;-84
2022/05/19 06:13:59;;;;;;;4.42;1.37;;;;;;;10.68;58.37;98850.84;1710401;83;21389;-77
2022/05/19 06:16:25;;;;;;;3.83;1.50;;;;;;;10.81;57.95;98862.11;1725600;82;21000;-80
2022/05/19 06:18:51;;;;;;;4.58;1.30;;;;;;;10.91;57.95;98860.20;1707153;82;21404;-77
2022/05/19 06:21:18;;;;;;;3.52;1.20;;;;;;;11.02;58.06;98866.66;1687523;83;22219;-76
2022/05/19 06:23:44;;;;;;;5.67;1.62;;;;;;;11.15;58.16;98869.96;1659790;86;21103;-76
2022/05/19 06:26:11;;;;;;;5.87;1.90;;;;;;;11.27;57.65;98866.66;1691281;85;21020;-76
2022/05/19 06:28:38;;;;;;;3.45;1.50;;;;;;;11.43;56.80;98874.77;1662384;86;21016;-76
2022/05/19 06:31:04;;;;;;;2.52;1.40;;;;;;;11.60;57.15;98865.59;1691561;84;20956;-76
2022/05/19 06:33:32;;;;;;;5.00;1.55;;;;;;;11.76;56.55;98868.83;1682665;83;21084;-76
2022/05/19 06:35:58;;;;;;;9.03;3.12;;;;;;;11.91;56.05;98871.60;1661761;86;21448;-76
2022/05/19 06:38:24;;;;;;;6.15;3.10;;;;;;;12.07;56.20;98867.31;1689687;85;21016;-76
2022/05/19 06:42:00;;;;;;;6.62;1.60;;;;;;;12.16;55.63;98854.31;1691537;85;21102;-76
2022/05/19 06:43:24;;;;;;;4.17;1.60;;;;;;;12.25;55.22;98856.77;1689278;84;21079;-76
2022/05/19 06:45:48;;;;;;;4.35;1.47;;;;;;;12.35;54.75;98858.74;1691319;85;21517;-75
2022/05/19 06:48:14;;;;;;;2.35;1.50;;;;;;;12.46;54.26;98862.02;1691587;85;20988;-75
2022/05/19 06:50:41;;;;;;;3.47;1.50;;;;;;;12.56;52.45;98857.81;1693755;84;21024;-76
2022/05/19 06:53:07;;;;;;;3.80;1.40;;;;;;;12.64;50.72;98854.08;1691847;85;21078;-76
2022/05/19 06:55:36;;;;;;;3.30;1.45;;;;;;;12.75;52.06;98856.94;1691956;85;20992;-76
2022/05/19 06:58:04;;;;;;;3.42;1.55;;;;;;;12.86;52.11;98857.97;1691714;85;21060;-76
2022/05/19 07:00:31;;;;;;;3.35;1.72;;;;;;;12.96;51.57;98863.95;1695838;84;20984;-77
2022/05/19 07:03:00;;;;;;;3.20;1.20;;;;;;;13.06;51.29;98864.13;1685608;85;21104;-77
2022/05/19 07:05:30;;;;;;;1.98;1.10;;;;;;;13.17;50.97;98857.20;1679008;85;21079;-77
2022/05/19 07:07:56;;;;;;;2.72;1.32;;;;;;;13.30;50.95;98858.64;1677735;85;21072;-77
2022/05/19 07:10:28;;;;;;;2.45;1.45;;;;;;;13.40;51.04;98862.35;1675014;84;21044;-80
2022/05/19 07:12:56;;;;;;;5.22;2.15;;;;;;;13.49;50.40;98860.80;1664926;85;21023;-78
2022/05/19 07:15:23;;;;;;;3.80;1.70;;;;;;;13.59;51.01;98862.77;1667574;85;21001;-78
2022/05/19 07:17:49;;;;;;;2.20;1.47;;;;;;;13.65;47.29;98864.37;1721619;83;21051;-79
2022/05/19 07:23:02;;;;;;;9.95;1.77;;;;;;;13.82;48.75;98866.11;1686578;85;21478;-82
2022/05/19 07:25:29;;;;;;;3.05;1.32;;;;;;;13.92;48.38;98854.73;1709917;82;21020;-79
2022/05/19 07:27:55;;;;;;;6.42;1.67;;;;;;;14.03;48.45;98857.06;1720121;83;21008;-78
2022/05/19 07:30:22;;;;;;;6.85;1.50;;;;;;;14.09;47.39;98846.69;1719444;83;21549;-79
2022/05/19 07:32:48;;;;;;;5.08;1.98;;;;;;;14.19;48.27;98844.15;1681786;85;20996;-80
2022/05/19 07:35:16;;;;;;;4.42;1.50;;;;;;;14.26;47.12;98850.17;1721251;83;21048;-79
2022/05/19 07:37:43;;;;;;;3.77;1.52;;;;;;;14.38;47.49;98848.91;1721032;83;21055;-79
2022/05/19 07:40:11;;;;;;;3.25;1.47;;;;;;;14.50;46.27;98847.66;1721270;83;21091;-79
2022/05/19 07:42:37;;;;;;;15.15;9.28;;;;;;;14.57;45.97;98842.52;1721528;83;21525;-79
2022/05/19 07:45:08;;;;;;;13.60;2.87;;;;;;;14.60;46.13;98840.21;1721427;83;21012;-79
2022/05/19 07:47:35;;;;;;;7.03;2.12;;;;;;;14.67;44.86;98837.77;1686355;85;20996;-78
2022/05/19 07:50:02;;;;;;;3.55;1.98;;;;;;;14.76;44.79;98839.28;1714759;82;21015;-78
2022/05/19 07:52:29;;;;;;;2.37;1.50;;;;;;;14.87;45.79;98841.13;1681521;85;21026;-79
2022/05/19 07:54:55;;;;;;;4.47;1.50;;;;;;;14.91;44.55;98843.25;1720934;83;21421;-78
2022/05/19 07:57:23;;;;;;;2.58;1.60;;;;;;;14.96;43.39;98847.09;1721305;83;21019;-79
2022/05/19 07:59:49;;;;;;;4.92;1.90;;;;;;;14.97;42.99;98847.48;1721211;83;21123;-78
2022/05/19 08:02:16;;;;;;;3.52;1.40;;;;;;;15.04;43.22;98841.03;1686437;85;20977;-78
2022/05/19 08:04:42;;;;;;;5.00;1.92;;;;;;;15.10;43.94;98842.59;1721333;82;21082;-79
2022/05/19 08:07:09;;;;;;;2.45;1.50;;;;;;;15.14;41.13;98853.14;1686586;85;20966;-79
2022/05/19 08:17:48;;;;;;;7.70;1.60;;;;;;;15.27;43.57;98836.67;1719170;83;21011;-79
2022/05/19 08:20:14;;;;;;;3.35;1.70;;;;;;;15.34;43.91;98838.66;1725708;82;21606;-79
2022/05/19 08:22:40;;;;;;;3.08;1.80;;;;;;;15.42;44.61;98837.48;1724175;83;21024;-79
2022/05/19 08:25:07;;;;;;;6.83;2.08;;;;;;;15.54;44.83;98833.95;1726498;82;21019;-79
2022/05/19 08:27:33;;;;;;;4.47;1.92;;;;;;;15.63;43.92;98838.97;1724752;81;21023;-79
2022/05/19 08:29:59;;;;;;;5.42;1.95;;;;;;;15.70;43.22;98839.12;1717523;82;21054;-79
2022/05/19 08:32:26;;;;;;;5.90;1.90;;;;;;;15.75;42.93;98835.42;1719496;82;21087;-79
2022/05/19 08:34:52;;;;;;;5.97;1.40;;;;;;;15.79;43.13;98838.39;1715847;82;21031;-80
2022/05/19 08:37:20;;;;;;;5.55;1.85;;;;;;;15.76;41.09;98835.37;1687262;84;21084;-79
2022/05/19 08:39:46;;;;;;;4.55;1.40;;;;;;;15.80;41.12;98837.45;1699892;84;21031;-79
2022/05/19 08:42:16;;;;;;;3.90;1.70;;;;;;;15.88;41.65;98836.71;1679112;85;21045;-79
2022/05/19 08:44:48;;;;;;;8.85;4.03;;;;;;;15.91;41.61;98823.69;1679192;85;21037;-79
2022/05/19 08:47:17;;;;;;;3.70;2.30;;;;;;;16.01;41.98;98834.47;1678329;85;21013;-80
2022/05/19 08:49:51;;;;;;;2.47;1.17;;;;;;;16.12;41.63;98825.16;1679243;85;21514;-79
2022/05/19 08:52:27;;;;;;;1.75;1.00;;;;;;;16.13;36.31;98832.23;1679494;85;21080;-79
2022/05/19 08:54:56;;;;;;;2.83;0.90;;;;;;;16.15;37.24;98830.39;1679405;85;21526;-79
2022/05/19 08:57:26;;;;;;;3.45;1.00;;;;;;;16.15;34.99;98831.73;1679191;85;21049;-79
2022/05/19 09:00:05;;;;;;;6.50;1.20;;;;;;;16.22;36.56;98826.08;1679305;85;21053;-80
2022/05/19 09:02:42;;;;;;;1.80;0.95;;;;;;;16.32;35.54;98829.73;1679534;85;21072;-78
2022/05/19 09:05:27;;;;;;;7.12;1.00;;;;;;;16.38;34.51;98821.45;1679380;85;21029;-77
2022/05/19 09:08:14;;;;;;;1.85;1.10;;;;;;;16.49;35.81;98825.89;1679500;85;21034;-77
2022/05/19 09:10:53;;;;;;;2.30;1.25;;;;;;;16.52;32.89;98817.36;1679277;85;21050;-78
2022/05/19 09:13:41;;;;;;;2.92;1.00;;;;;;;16.56;34.43;98806.45;1700297;84;21075;-78
2022/05/19 09:16:14;;;;;;;2.05;0.82;;;;;;;16.68;33.68;98808.20;1682072;84;21067;-77
2022/05/19 09:18:44;;;;;;;3.40;0.90;;;;;;;16.75;32.92;98811.92;1691163;85;21091;-78
2022/05/19 09:21:11;;;;;;;2.95;0.85;;;;;;;16.74;33.55;98816.00;1658956;86;21120;-78
2022/05/19 09:23:40;;;;;;;4.05;1.05;;;;;;;16.85;33.00;98818.20;1707202;83;21477;-77
2022/05/19 09:26:29;;;;;;;2.75;1.05;;;;;;;16.93;34.32;98809.88;1721311;83;20997;-78
2022/05/19 09:28:58;;;;;;;1.50;1.05;;;;;;;16.94;34.47;98812.95;1721467;82;21025;-78
2022/05/19 09:31:41;;;;;;;5.00;1.10;;;;;;;17.05;33.10;98816.52;1721205;83;21032;-78
2022/05/19 09:34:09;;;;;;;4.40;1.00;;;;;;;17.18;34.44;98811.03;1719386;82;21136;-78
2022/05/19 09:36:41;;;;;;;10.58;6.72;;;;;;;17.21;30.33;98812.25;1706274;83;21050;-79
2022/05/19 09:39:10;;;;;;;5.40;2.20;;;;;;;17.27;32.75;98812.43;1659024;86;21343;-78
2022/05/19 09:41:40;;;;;;;3.70;1.15;;;;;;;17.30;31.52;98800.74;1704036;82;20957;-78
2022/05/19 09:44:13;;;;;;;1.35;0.90;;;;;;;17.38;31.21;98801.25;1721563;83;21075;-79
2022/05/19 09:46:50;;;;;;;1.30;0.90;;;;;;;17.48;30.35;98797.70;1721456;83;21007;-79
2022/05/19 09:49:27;;;;;;;1.20;0.93;;;;;;;17.52;29.92;98789.93;1720188;83;21067;-78
2022/05/19 09:52:00;;;;;;;2.37;1.00;;;;;;;17.58;30.77;98786.96;1721468;83;21047;-79
2022/05/19 09:54:33;;;;;;;1.72;0.93;;;;;;;17.70;31.84;98780.17;1719456;83;21072;-79
2022/05/19 09:57:06;;;;;;;3.72;1.00;;;;;;;17.83;28.53;98781.80;1721676;82;21076;-78
2022/05/19 09:59:48;;;;;;;1.42;0.90;;;;;;;17.88;28.06;98776.20;1721229;83;21111;-78
2022/05/19 10:02:27;;;;;;;1.92;0.90;;;;;;;17.95;28.37;98777.67;1686685;85;21009;-78
2022/05/19 10:04:57;;;;;;;4.92;0.90;;;;;;;18.03;28.28;98778.16;1721342;83;21024;-78
2022/05/19 10:07:30;;;;;;;1.87;0.80;;;;;;;18.02;28.42;98775.58;1686635;85;21037;-80
2022/05/19 10:09:58;;;;;;;1.40;1.05;;;;;;;17.89;27.39;98780.66;1721180;83;21472;-77
2022/05/19 10:12:34;;;;;;;4.45;1.10;;;;;;;17.89;27.82;98778.83;1686756;85;20996;-78
2022/05/19 10:15:08;;;;;;;1.17;0.75;;;;;;;17.97;27.76;98774.92;1721098;83;21370;-79
2022/05/19 10:17:57;;;;;;;1.80;1.02;;;;;;;18.04;25.48;98770.53;1748656;81;21033;-80
2022/05/19 10:20:29;;;;;;;2.50;0.78;;;;;;;18.19;25.84;98759.55;1717140;83;20997;-78
2022/05/19 10:23:14;;;;;;;1.40;1.00;;;;;;;18.38;25.88;98772.53;1699487;84;21000;-80
2022/05/19 10:25:46;;;;;;;2.20;1.05;;;;;;;18.52;27.86;98755.77;1699418;84;21443;-80
2022/05/19 10:31:52;;;;;;;4.55;1.30;;;;;;;18.98;28.40;98770.00;1699559;84;21553;-76
2022/05/19 10:34:38;;;;;;;6.42;0.90;;;;;;;19.25;28.88;98775.78;1699491;84;21106;-76
2022/05/19 10:37:26;;;;;;;2.15;0.93;;;;;;;19.33;26.95;98767.77;1699544;84;21015;-77
2022/05/19 10:40:16;;;;;;;1.45;0.85;;;;;;;19.67;27.22;98766.44;1651807;85;21495;-76
2022/05/19 10:43:16;;;;;;;1.22;0.90;;;;;;;20.83;27.58;98772.46;1713012;83;21028;-77
2022/05/19 10:45:49;;;;;;;1.87;1.10;;;;;;;22.33;26.16;98755.20;1686895;84;21060;-78
2022/05/19 10:48:37;;;;;;;1.50;1.00;;;;;;;23.26;21.51;98761.59;1717387;83;20998;-77
2022/05/19 10:51:14;;;;;;;2.25;1.02;;;;;;;23.70;19.99;98748.12;1699759;84;20995;-79
2022/05/19 10:53:57;;;;;;;2.50;1.00;;;;;;;24.76;20.99;98750.37;1699547;84;21014;-80
2022/05/19 10:56:42;;;;;;;4.17;1.00;;;;;;;24.76;20.20;98746.30;1699576;84;20949;-80
2022/05/19 10:59:24;;;;;;;1.87;1.20;;;;;;;25.91;22.08;98736.52;1699917;84;20979;-80
2022/05/19 11:02:24;;;;;;;1.98;1.12;;;;;;;26.70;19.68;98749.03;1676682;83;21296;-79
2022/05/19 11:05:06;;;;;;;3.30;1.05;;;;;;;26.96;18.58;98736.96;1678185;84;21007;-79
2022/05/19 11:07:55;;;;;;;2.30;1.55;;;;;;;27.37;19.50;98728.91;1695577;83;21533;-79
2022/05/19 11:10:42;;;;;;;2.77;1.15;;;;;;;28.23;20.50;98734.45;1691906;84;21083;-80
2022/05/19 11:13:21;;;;;;;1.17;1.00;;;;;;;29.03;18.35;98728.58;1698100;84;21015;-76
2022/05/19 11:16:00;;;;;;;3.65;1.00;;;;;;;29.33;17.63;98724.78;1699190;84;20991;-78
2022/05/19 11:18:34;;;;;;;3.15;1.10;;;;;;;29.16;17.14;98722.31;1683796;85;21055;-79
2022/05/19 11:21:06;;;;;;;2.47;1.20;;;;;;;29.77;17.46;98713.27;1683569;84;21048;-79
2022/05/19 11:23:53;;;;;;;2.35;1.25;;;;;;;30.28;16.84;98703.30;1680790;85;21047;-79
2022/05/19 11:26:39;;;;;;;1.40;1.30;;;;;;;30.69;18.15;98704.70;1685908;85;21028;-79
2022/05/19 11:29:12;;;;;;;3.47;1.17;;;;;;;31.42;17.00;98710.08;1686778;85;20992;-77
2022/05/19 11:32:08;;;;;;;5.92;1.42;;;;;;;30.99;15.17;98701.70;1687590;84;21028;-81
2022/05/19 11:34:44;;;;;;;2.12;1.00;;;;;;;31.25;15.83;98705.81;1686448;84;21083;-77
2022/05/19 11:37:35;;;;;;;3.60;1.40;;;;;;;31.58;16.65;98695.58;1684538;85;21020;-78
2022/05/19 11:40:23;;;;;;;2.22;1.20;;;;;;;31.81;14.61;98691.77;1686754;84;20944;-77
2022/05/19 11:43:19;;;;;;;2.62;1.22;;;;;;;31.27;15.52;98700.19;1686689;85;21004;-78
2022/05/19 11:45:54;;;;;;;3.45;1.20;;;;;;;31.00;15.64;98697.97;1687114;84;20972;-78
2022/05/19 11:55:18;;;;;;;2.37;1.12;;;;;;;31.59;12.97;98695.42;1674659;84;21004;-77
2022/05/19 11:58:04;;;;;;;1.05;0.95;;;;;;;31.19;13.35;98695.02;1670943;84;21003;-77
2022/05/19 12:00:33;;;;;;;;;;;;;;;31.02;12.57;98690.44;1717962;83;21015;-77
2022/05/19 12:03:09;;;;;;;1.95;0.98;;;;;;;31.37;14.62;98679.58;1723970;83;20447;-78
2022/05/19 12:05:54;;;;;;;3.00;1.00;;;;;;;31.65;13.86;98683.45;1693148;84;21414;-78
2022/05/19 12:08:29;;;;;;;2.25;1.10;;;;;;;30.96;12.57;98698.77;1691967;85;21127;-77
2022/05/19 12:11:21;;;;;;;2.67;0.90;;;;;;;30.31;12.68;98688.47;1691908;85;21104;-77
2022/05/19 12:13:51;;;;;;;2.92;1.30;;;;;;;29.87;13.42;98684.55;1691694;84;21107;-77
2022/05/19 12:16:26;;;;;;;4.80;1.17;;;;;;;29.10;13.53;98679.25;1691954;84;21060;-77
2022/05/19 12:19:05;;;;;;;1.10;1.00;;;;;;;29.54;14.49;98685.50;1688696;85;21052;-77